Time;durP1;ratioP1;P1;durP2;ratioP2;P2;SDS_P1;SDS_P2;PMS_P1;PMS_P2;Temp;Humidity;BMP_temperature;BMP_pressure;BME280_temperature;BME280_humidity;BME280_pressure;Samples;Min_cycle;Max_cycle;Signal;HPM_P1;HPM_P2
2022/11/01 00:01:03;;;;;;;16.17;6.90;;;;;;;14.90;92.65;100739.19;5018249;28;20049;-85
2022/11/01 00:03:28;;;;;;;13.03;7.00;;;;;;;14.90;92.90;100739.19;5019236;28;20056;-87
2022/11/01 00:05:53;;;;;;;14.73;6.30;;;;;;;14.91;93.27;100732.69;5019020;28;20112;-85
2022/11/01 00:08:19;;;;;;;13.30;6.83;;;;;;;14.92;92.97;100725.31;5018357;28;20171;-86
2022/11/01 00:10:44;;;;;;;16.03;6.90;;;;;;;14.94;92.60;100726.72;5019108;28;20405;-85
2022/11/01 00:13:09;;;;;;;12.70;6.53;;;;;;;14.93;93.20;100726.97;5019102;28;20611;-89
2022/11/01 00:15:35;;;;;;;17.07;6.80;;;;;;;14.94;93.25;100723.19;5018132;28;20488;-86
2022/11/01 00:18:00;;;;;;;15.63;6.70;;;;;;;14.94;93.34;100707.63;5018499;28;20165;-85
2022/11/01 00:20:25;;;;;;;15.43;7.10;;;;;;;14.99;93.71;100709.63;5018369;28;20049;-86
2022/11/01 00:22:51;;;;;;;14.00;6.00;;;;;;;15.01;93.63;100702.88;5019440;28;20184;-86
2022/11/01 00:25:16;;;;;;;15.07;6.40;;;;;;;15.04;93.70;100704.28;5018605;28;22042;-86
2022/11/01 00:27:41;;;;;;;13.03;6.20;;;;;;;15.12;93.61;100698.41;5007373;28;20037;-86
2022/11/01 00:30:07;;;;;;;16.60;6.57;;;;;;;15.18;93.91;100700.16;5000034;28;20033;-84
2022/11/01 00:32:32;;;;;;;14.10;6.53;;;;;;;15.23;94.01;100698.59;5018313;28;20036;-86
2022/11/01 00:34:57;;;;;;;12.80;6.07;;;;;;;15.34;94.16;100695.78;5018955;28;20079;-85
2022/11/01 00:37:23;;;;;;;16.17;6.30;;;;;;;15.44;94.30;100699.78;5018967;28;20065;-86
2022/11/01 00:39:48;;;;;;;14.53;6.50;;;;;;;15.48;93.87;100695.47;5019037;28;20060;-83
2022/11/01 00:42:13;;;;;;;17.10;6.37;;;;;;;15.55;94.14;100695.31;5019708;28;20061;-86
2022/11/01 00:44:39;;;;;;;12.90;6.20;;;;;;;15.55;94.11;100690.66;5014848;28;20124;-86
2022/11/01 00:47:04;;;;;;;12.40;5.73;;;;;;;15.62;93.93;100696.78;5015537;28;20112;-86
2022/11/01 00:49:29;;;;;;;11.47;5.73;;;;;;;15.66;94.03;100702.56;4978651;28;20045;-85
2022/11/01 00:51:55;;;;;;;12.57;6.20;;;;;;;15.65;93.81;100699.03;5036760;28;20064;-84
2022/11/01 00:54:20;;;;;;;12.90;5.73;;;;;;;15.63;93.97;100697.63;5021814;28;20148;-85
2022/11/01 00:56:45;;;;;;;13.93;5.87;;;;;;;15.60;94.07;100696.22;5023666;28;20465;-85
2022/11/01 00:59:11;;;;;;;13.90;6.13;;;;;;;15.54;94.52;100697.19;5022092;28;21015;-86
2022/11/01 01:01:36;;;;;;;10.93;5.57;;;;;;;15.56;94.63;100697.78;5023359;28;20606;-84
2022/11/01 01:04:01;;;;;;;13.33;6.10;;;;;;;15.49;94.97;100691.63;5022445;28;20510;-85
2022/11/01 01:06:27;;;;;;;14.33;6.13;;;;;;;15.47;95.01;100685.63;5022329;28;20029;-86
2022/11/01 01:08:52;;;;;;;13.77;5.77;;;;;;;15.48;96.07;100690.00;5021909;28;20049;-85
2022/11/01 01:11:17;;;;;;;12.23;6.03;;;;;;;15.56;96.42;100672.34;5022222;28;20462;-86
2022/11/01 01:13:43;;;;;;;15.83;6.00;;;;;;;15.63;96.42;100671.13;5021484;28;20052;-85
2022/11/01 01:16:10;;;;;;;11.43;5.70;;;;;;;15.80;96.20;100683.97;5022613;28;20037;-84
2022/11/01 01:18:35;;;;;;;11.20;5.27;;;;;;;15.91;95.87;100679.47;5022162;28;20148;-84
2022/11/01 01:21:03;;;;;;;13.93;5.90;;;;;;;16.09;95.07;100661.94;5022697;28;20152;-86
2022/11/01 01:23:28;;;;;;;13.13;5.60;;;;;;;16.07;95.29;100669.59;5022630;28;20772;-86
2022/11/01 01:25:53;;;;;;;12.00;5.30;;;;;;;16.24;94.03;100666.78;5019939;28;20049;-84
2022/11/01 01:28:19;;;;;;;11.53;5.57;;;;;;;16.27;93.95;100661.66;5022847;28;20059;-85
2022/11/01 01:30:44;;;;;;;12.43;5.00;;;;;;;16.40;93.12;100665.06;5022142;28;20405;-85
2022/11/01 01:33:09;;;;;;;11.63;5.17;;;;;;;16.39;93.37;100664.25;5022379;28;20484;-84
2022/11/01 01:35:37;;;;;;;12.60;5.10;;;;;;;16.46;92.94;100658.59;5021496;28;20045;-85
2022/11/01 01:38:03;;;;;;;12.17;5.10;;;;;;;16.43;93.37;100670.03;5022669;28;20033;-84
2022/11/01 01:40:28;;;;;;;10.97;5.07;;;;;;;16.45;92.91;100674.16;5021058;28;20501;-83
2022/11/01 01:42:53;;;;;;;12.27;5.40;;;;;;;16.47;92.96;100666.53;5037468;28;21324;-83
2022/11/01 01:45:33;;;;;;;12.70;5.30;;;;;;;16.46;93.24;100673.09;5021414;28;20037;-85
2022/11/01 01:48:16;;;;;;;10.07;5.10;;;;;;;16.49;93.30;100677.22;5021946;28;20041;-83
2022/11/01 01:50:44;;;;;;;11.87;4.80;;;;;;;16.51;92.97;100655.91;5021146;28;20151;-84
2022/11/01 01:53:24;;;;;;;11.00;4.83;;;;;;;16.53;93.59;100672.88;5020586;28;21445;-86
2022/11/01 01:55:59;;;;;;;13.33;5.20;;;;;;;16.55;92.89;100665.28;5019569;28;20409;-87
2022/11/01 01:58:29;;;;;;;11.37;5.40;;;;;;;16.51;93.83;100653.19;5022155;28;21400;-84
2022/11/01 02:00:55;;;;;;;14.37;5.20;;;;;;;16.52;93.37;100661.13;5020054;28;20056;-83
2022/11/01 02:03:24;;;;;;;9.43;4.83;;;;;;;16.57;93.57;100667.75;5013500;28;20037;-85
2022/11/01 02:05:56;;;;;;;13.07;5.40;;;;;;;16.59;93.36;100647.25;5021314;28;20126;-82
2022/11/01 02:08:28;;;;;;;11.13;5.40;;;;;;;16.59;93.59;100666.41;5020728;28;20120;-83
2022/11/01 02:11:00;;;;;;;13.67;5.10;;;;;;;16.61;93.54;100657.94;5019288;28;20060;-86
2022/11/01 02:13:25;;;;;;;12.47;5.43;;;;;;;16.71;92.73;100644.34;5021798;28;20393;-84
2022/11/01 02:16:28;;;;;;;13.10;4.80;;;;;;;16.68;93.31;100648.44;5020958;28;20052;-84
2022/11/01 02:19:30;;;;;;;13.57;4.80;;;;;;;16.73;92.78;100646.81;5020654;28;20041;-84
2022/11/01 02:22:01;;;;;;;11.17;5.00;;;;;;;16.73;92.40;100647.66;5020142;28;20220;-84
2022/11/01 02:24:42;;;;;;;13.53;4.93;;;;;;;16.75;92.61;100675.59;5036218;28;20124;-84
2022/11/01 02:27:27;;;;;;;9.70;4.50;;;;;;;16.87;91.58;100673.50;5002447;28;20578;-86
2022/11/01 02:29:53;;;;;;;8.33;4.77;;;;;;;16.76;92.07;100666.31;5020553;28;20582;-84
2022/11/01 02:32:30;;;;;;;9.93;4.77;;;;;;;16.76;92.29;100660.00;5009694;28;20037;-84
2022/11/01 02:35:04;;;;;;;10.87;4.63;;;;;;;16.77;91.83;100650.69;5020359;28;20041;-84
2022/11/01 02:38:00;;;;;;;13.00;5.10;;;;;;;16.85;91.72;100655.72;5021035;28;20029;-83
2022/11/01 02:40:33;;;;;;;10.63;4.47;;;;;;;16.76;91.84;100663.56;5035237;28;20102;-84
2022/11/01 02:43:05;;;;;;;9.13;4.30;;;;;;;16.75;91.81;100655.63;5020579;28;20041;-82
2022/11/01 02:45:36;;;;;;;13.40;4.33;;;;;;;16.70;91.80;100670.91;5021057;28;20037;-82
2022/11/01 02:48:03;;;;;;;10.83;4.67;;;;;;;16.61;91.95;100677.91;5020738;28;20041;-85
2022/11/01 02:51:00;;;;;;;13.23;5.27;;;;;;;16.70;91.47;100678.28;5021088;28;20559;-83
2022/11/01 02:53:26;;;;;;;11.97;4.90;;;;;;;16.65;91.52;100683.69;5008764;28;20069;-82
2022/11/01 02:55:52;;;;;;;13.03;5.53;;;;;;;16.57;92.00;100684.97;5020270;28;20044;-82
2022/11/01 02:58:27;;;;;;;13.03;4.70;;;;;;;16.63;91.69;100683.97;5012386;28;20497;-84
2022/11/01 03:00:54;;;;;;;9.43;4.80;;;;;;;16.59;92.14;100681.97;5019348;28;20029;-82
2022/11/01 03:03:29;;;;;;;10.33;4.73;;;;;;;16.66;91.82;100677.97;5021146;28;20037;-85
2022/11/01 03:06:04;;;;;;;9.93;4.53;;;;;;;16.68;91.86;100686.72;5018433;28;20040;-82
2022/11/01 03:08:32;;;;;;;14.07;5.80;;;;;;;16.56;92.37;100696.97;5020282;28;20401;-84
2022/11/01 03:11:21;;;;;;;9.70;5.13;;;;;;;16.52;92.83;100690.38;5019116;28;20048;-82
2022/11/01 03:14:05;;;;;;;9.20;5.17;;;;;;;16.47;93.22;100693.03;5020516;28;20028;-83
2022/11/01 03:16:53;;;;;;;10.02;4.60;;;;;;;16.49;93.00;100693.63;4999734;28;20030;-85
2022/11/01 03:19:24;;;;;;;13.23;5.37;;;;;;;16.59;92.46;100704.69;5020148;28;20060;-84
2022/11/01 03:22:14;;;;;;;12.87;5.20;;;;;;;16.56;92.84;100696.97;5020164;28;20033;-85
2022/11/01 03:24:53;;;;;;;9.37;4.97;;;;;;;16.40;93.40;100698.72;5019207;28;20511;-84
2022/11/01 03:27:32;;;;;;;10.77;5.53;;;;;;;16.42;93.24;100698.47;5019984;28;20049;-86
2022/11/01 03:30:12;;;;;;;10.77;5.57;;;;;;;16.33;93.90;100712.59;5018609;28;20154;-81
2022/11/01 03:32:51;;;;;;;11.40;4.73;;;;;;;16.44;92.68;100718.16;5019348;28;20037;-83
2022/11/01 03:35:20;;;;;;;10.77;4.87;;;;;;;16.48;90.62;100730.25;5019848;28;20051;-85
2022/11/01 03:37:48;;;;;;;10.43;3.97;;;;;;;16.42;89.94;100720.34;5019930;28;20544;-85
2022/11/01 03:40:16;;;;;;;7.30;3.47;;;;;;;16.45;87.28;100697.94;5018632;28;20034;-86
2022/11/01 03:42:46;;;;;;;5.87;3.27;;;;;;;16.40;86.69;100730.69;5019012;28;20078;-85
2022/11/01 03:45:15;;;;;;;6.37;3.20;;;;;;;16.33;85.91;100739.94;5019728;28;20072;-88
2022/11/01 03:47:41;;;;;;;6.07;3.03;;;;;;;16.23;86.31;100745.25;5019305;28;20095;-84
2022/11/01 03:50:18;;;;;;;7.63;3.07;;;;;;;16.28;84.72;100759.00;5018874;28;20045;-83
2022/11/01 03:52:44;;;;;;;7.03;3.03;;;;;;;16.18;84.45;100753.38;5019910;28;20083;-84
2022/11/01 03:55:19;;;;;;;5.27;2.40;;;;;;;16.16;81.20;100752.81;5019398;28;20037;-87
2022/11/01 03:57:50;;;;;;;8.67;2.60;;;;;;;16.11;79.84;100764.47;5019640;28;20126;-87
2022/11/01 04:00:27;;;;;;;4.17;2.20;;;;;;;16.08;77.55;100780.56;5019182;28;20029;-84
2022/11/01 04:02:54;;;;;;;4.37;2.10;;;;;;;15.97;76.72;100785.03;5019134;28;20411;-87
2022/11/01 04:05:22;;;;;;;6.40;2.00;;;;;;;16.00;75.29;100796.28;5019785;28;20069;-86
2022/11/01 04:07:47;;;;;;;9.83;1.90;;;;;;;15.92;75.22;100807.63;5019328;28;20484;-86
2022/11/01 04:10:14;;;;;;;4.43;1.97;;;;;;;15.82;74.05;100786.44;5019430;28;20120;-84
2022/11/01 04:12:39;;;;;;;4.33;1.53;;;;;;;15.82;71.99;100807.47;5019836;28;20120;-85
2022/11/01 04:20:53;;;;;;;5.53;1.57;;;;;;;15.63;69.59;100834.97;5018643;28;20038;-87
2022/11/01 04:23:18;;;;;;;3.40;1.40;;;;;;;15.59;69.75;100841.19;5018800;28;20161;-85
2022/11/01 04:25:45;;;;;;;3.37;1.50;;;;;;;15.41;69.72;100847.66;5017523;28;20076;-83
2022/11/01 04:28:11;;;;;;;3.33;1.30;;;;;;;15.26;70.84;100848.19;5019290;28;20045;-84
2022/11/01 04:30:36;;;;;;;5.23;1.30;;;;;;;15.25;70.79;100862.94;5018392;28;20033;-83
2022/11/01 04:33:02;;;;;;;2.80;1.00;;;;;;;15.09;71.15;100851.69;5018839;28;20043;-85
2022/11/01 04:35:27;;;;;;;3.30;1.30;;;;;;;15.02;71.55;100859.22;5018933;28;20544;-83
2022/11/01 04:37:57;;;;;;;3.40;1.20;;;;;;;15.12;70.81;100867.63;5019587;28;20124;-83
2022/11/01 04:40:23;;;;;;;7.90;1.27;;;;;;;15.13;70.01;100879.34;5018645;28;20778;-92
2022/11/01 04:42:48;;;;;;;3.17;1.27;;;;;;;15.11;70.57;100873.28;5017613;28;20731;-85
2022/11/01 04:45:14;;;;;;;3.40;1.20;;;;;;;14.98;71.00;100886.13;5018521;28;20040;-84
2022/11/01 04:47:49;;;;;;;4.73;1.03;;;;;;;14.81;72.34;100888.78;5018704;28;20090;-83
2022/11/01 04:50:15;;;;;;;2.87;1.20;;;;;;;14.78;71.88;100882.97;5017963;28;20918;-83
2022/11/01 04:52:40;;;;;;;3.73;1.17;;;;;;;14.80;71.91;100899.94;5018950;28;20036;-83
2022/11/01 04:55:06;;;;;;;3.93;1.47;;;;;;;14.72;72.08;100908.47;5019337;28;20116;-84
2022/11/01 04:57:37;;;;;;;5.07;1.27;;;;;;;14.69;71.90;100924.25;5018702;28;20080;-83
2022/11/01 05:00:03;;;;;;;8.13;1.50;;;;;;;14.59;72.45;100925.88;5009475;28;20599;-82
2022/11/01 05:02:29;;;;;;;4.33;1.40;;;;;;;14.52;73.01;100925.97;5034179;28;20040;-82
2022/11/01 05:04:54;;;;;;;2.57;1.00;;;;;;;14.45;73.11;100933.44;5018213;28;20037;-84
2022/11/01 05:07:19;;;;;;;7.00;1.60;;;;;;;14.33;73.67;100956.06;5034390;28;20037;-85
2022/11/01 05:09:45;;;;;;;2.77;1.13;;;;;;;14.34;73.44;100956.91;5014708;28;21390;-86
2022/11/01 05:12:10;;;;;;;4.67;1.17;;;;;;;14.45;72.20;100953.34;5017556;28;20148;-82
2022/11/01 05:14:35;;;;;;;5.30;1.33;;;;;;;14.29;72.99;100960.34;5019158;28;20477;-82
2022/11/01 05:17:01;;;;;;;4.50;1.20;;;;;;;14.26;71.77;100966.22;5017944;28;20124;-87
2022/11/01 05:19:26;;;;;;;4.63;1.07;;;;;;;14.31;71.23;100987.34;5019142;28;20121;-91
2022/11/01 05:21:52;;;;;;;5.53;1.23;;;;;;;14.26;70.58;100973.59;5010560;28;20076;-81
2022/11/01 05:24:17;;;;;;;5.63;1.23;;;;;;;14.19;70.59;100984.59;5018535;28;20501;-88
2022/11/01 05:26:42;;;;;;;6.37;1.17;;;;;;;14.27;69.35;100980.72;5018290;28;20045;-80
2022/11/01 05:29:08;;;;;;;6.83;1.40;;;;;;;14.21;68.87;100985.19;5016277;28;20064;-87
2022/11/01 05:31:34;;;;;;;7.70;1.17;;;;;;;14.06;69.61;100996.53;5036372;28;20044;-88
2022/11/01 05:33:59;;;;;;;5.67;1.40;;;;;;;14.07;69.62;100998.16;5003963;28;20037;-84
2022/11/01 05:36:25;;;;;;;2.77;1.20;;;;;;;13.95;69.99;100987.25;5021570;28;21369;-85
2022/11/01 05:38:50;;;;;;;6.23;1.20;;;;;;;13.97;69.82;101008.81;5021873;28;20037;-83
2022/11/01 05:41:15;;;;;;;4.10;1.20;;;;;;;13.78;70.50;100981.59;5021470;28;20040;-84
2022/11/01 05:43:41;;;;;;;3.73;1.03;;;;;;;13.80;70.88;101004.00;5003471;28;20045;-84
2022/11/01 05:46:06;;;;;;;5.47;1.30;;;;;;;13.75;71.16;101000.28;5021048;28;20025;-87
2022/11/01 05:48:33;;;;;;;2.60;1.27;;;;;;;13.62;71.77;100991.22;5019615;28;20332;-84
2022/11/01 05:50:58;;;;;;;5.00;1.03;;;;;;;13.62;72.16;101004.00;5021020;28;20041;-85
2022/11/01 05:53:23;;;;;;;3.37;1.23;;;;;;;13.52;73.14;101010.00;5003668;28;20028;-83
2022/11/01 05:55:49;;;;;;;4.60;1.50;;;;;;;13.61;72.98;101002.34;5021916;28;20122;-87
2022/11/01 05:58:14;;;;;;;5.20;1.60;;;;;;;13.62;73.41;101012.19;5021289;28;20033;-83
2022/11/01 06:00:40;;;;;;;5.23;1.60;;;;;;;13.55;74.27;101023.16;5022198;28;21748;-82
2022/11/01 06:03:05;;;;;;;5.03;1.60;;;;;;;13.46;75.04;101019.06;5021060;28;21389;-88
2022/11/01 06:05:31;;;;;;;5.73;1.47;;;;;;;13.51;74.42;101024.66;5020574;28;20045;-85
2022/11/01 06:07:59;;;;;;;5.37;1.60;;;;;;;13.48;74.48;101027.84;5020743;28;20072;-82
2022/11/01 06:10:24;;;;;;;4.33;2.10;;;;;;;13.49;74.12;101024.03;5021685;28;20499;-83
2022/11/01 06:12:50;;;;;;;7.00;2.00;;;;;;;13.51;71.08;101032.81;5019545;28;20053;-86
2022/11/01 06:15:15;;;;;;;5.60;1.73;;;;;;;13.40;70.78;101036.31;5019518;28;20052;-85
2022/11/01 06:17:41;;;;;;;6.43;1.87;;;;;;;13.42;69.14;101050.50;5036303;28;21377;-86
2022/11/01 06:20:07;;;;;;;8.17;2.00;;;;;;;13.46;68.06;101052.56;5009041;28;20047;-83
2022/11/01 06:22:35;;;;;;;7.47;2.10;;;;;;;13.39;68.37;101046.34;5012708;28;20045;-88
2022/11/01 06:25:00;;;;;;;5.97;1.77;;;;;;;13.28;68.70;101056.03;5020810;28;20520;-88
2022/11/01 06:27:27;;;;;;;5.37;1.73;;;;;;;13.30;68.79;101064.84;5021083;28;20048;-82
2022/11/01 06:29:52;;;;;;;8.23;1.73;;;;;;;13.27;69.30;101065.28;5020961;28;20060;-82
2022/11/01 06:32:18;;;;;;;5.67;1.63;;;;;;;13.34;68.85;101074.22;5002494;28;20045;-83
2022/11/01 06:34:43;;;;;;;7.40;2.27;;;;;;;13.28;69.24;101077.81;5021074;28;20046;-85
2022/11/01 06:37:08;;;;;;;6.03;1.90;;;;;;;13.21;70.34;101082.50;5020317;28;20040;-85
2022/11/01 06:39:33;;;;;;;9.73;2.53;;;;;;;13.29;70.10;101073.22;5021513;28;20119;-83
2022/11/01 06:41:59;;;;;;;6.97;2.30;;;;;;;13.22;71.20;101080.59;5035284;28;20156;-85
2022/11/01 06:44:24;;;;;;;6.27;1.73;;;;;;;13.23;71.48;101080.41;5020521;28;20152;-89
2022/11/01 06:46:49;;;;;;;8.77;2.03;;;;;;;13.12;72.49;101084.69;5019809;28;20041;-88
2022/11/01 06:49:15;;;;;;;6.10;1.60;;;;;;;13.10;73.13;101078.63;5020197;28;20037;-82
2022/11/01 06:51:40;;;;;;;7.67;1.87;;;;;;;13.06;73.21;101095.63;5020714;28;20108;-85
2022/11/01 06:54:05;;;;;;;7.07;1.73;;;;;;;12.97;73.99;101081.44;5020555;28;20072;-85
2022/11/01 06:56:31;;;;;;;9.07;1.90;;;;;;;12.99;74.15;101093.78;5019730;28;20072;-86
2022/11/01 06:58:56;;;;;;;7.93;1.83;;;;;;;13.06;73.56;101095.63;5001624;28;20041;-86
2022/11/01 07:01:23;;;;;;;9.00;2.10;;;;;;;12.97;74.07;101082.31;5021012;28;20160;-84
2022/11/01 07:03:50;;;;;;;7.60;2.00;;;;;;;12.94;74.81;101101.75;5020541;28;20132;-82
2022/11/01 07:06:17;;;;;;;6.73;1.87;;;;;;;12.98;74.47;101111.16;5020328;28;20128;-81
2022/11/01 07:08:42;;;;;;;7.20;2.67;;;;;;;12.93;75.13;101115.59;5020519;28;20041;-85
2022/11/01 07:11:07;;;;;;;5.93;2.00;;;;;;;12.94;74.94;101090.88;5019683;28;20044;-86
2022/11/01 07:13:35;;;;;;;8.47;1.80;;;;;;;12.95;74.85;101127.09;5019924;28;20068;-83
2022/11/01 07:16:02;;;;;;;7.40;2.90;;;;;;;12.90;75.19;101125.00;5019000;28;20059;-85
2022/11/01 07:18:29;;;;;;;9.17;2.10;;;;;;;12.95;74.77;101136.06;5021050;28;20064;-84
2022/11/01 07:20:55;;;;;;;6.37;2.17;;;;;;;12.90;74.71;101145.94;5001981;28;20414;-84
2022/11/01 07:23:22;;;;;;;7.27;1.97;;;;;;;13.00;74.63;101154.44;5021378;28;20063;-83
2022/11/01 07:25:51;;;;;;;7.77;2.40;;;;;;;12.97;75.16;101152.16;5020108;28;20152;-85
2022/11/01 07:28:17;;;;;;;8.83;2.13;;;;;;;13.05;74.54;101161.94;5019647;28;20416;-88
2022/11/01 07:30:46;;;;;;;9.27;2.40;;;;;;;13.02;74.57;101151.53;5020192;28;20037;-83
2022/11/01 07:33:12;;;;;;;8.70;2.30;;;;;;;13.12;74.13;101170.88;5020528;28;20604;-85
2022/11/01 07:35:37;;;;;;;8.27;2.13;;;;;;;13.15;74.19;101184.03;5017489;28;20165;-81
2022/11/01 07:38:03;;;;;;;9.77;2.40;;;;;;;13.22;73.38;101181.28;5020992;28;20061;-87
2022/11/01 07:40:28;;;;;;;8.40;2.10;;;;;;;13.23;73.52;101189.25;5020067;28;20072;-87
2022/11/01 07:42:59;;;;;;;9.83;2.30;;;;;;;13.27;72.97;101195.91;5000099;28;20049;-87
2022/11/01 07:45:29;;;;;;;5.13;2.00;;;;;;;13.32;72.80;101187.06;5019967;28;20086;-87
2022/11/01 07:48:08;;;;;;;10.80;2.27;;;;;;;13.38;72.65;101197.09;5001566;28;20033;-85
2022/11/01 07:50:34;;;;;;;9.80;2.70;;;;;;;13.40;71.49;101196.88;5019210;28;20076;-85
2022/11/01 07:53:16;;;;;;;8.40;2.23;;;;;;;13.42;71.64;101198.34;5033593;28;20620;-87
2022/11/01 07:55:43;;;;;;;13.00;3.10;;;;;;;13.31;72.29;101188.13;5020222;28;20481;-84
2022/11/01 07:58:10;;;;;;;11.70;2.90;;;;;;;13.39;71.45;101206.91;5019228;28;20544;-86
2022/11/01 08:00:36;;;;;;;10.47;2.50;;;;;;;13.55;70.39;101205.53;5019071;28;20586;-87
2022/11/01 08:03:04;;;;;;;11.77;2.30;;;;;;;13.51;70.38;101212.47;5019066;28;20613;-85
2022/11/01 08:05:30;;;;;;;12.50;2.43;;;;;;;13.57;70.10;101217.06;5017857;28;20033;-84
2022/11/01 08:07:55;;;;;;;11.50;2.40;;;;;;;13.64;69.89;101222.41;5015916;28;20040;-83
2022/11/01 08:10:21;;;;;;;11.83;2.90;;;;;;;13.76;68.49;101204.31;5018744;28;20472;-85
2022/11/01 08:12:46;;;;;;;9.47;2.40;;;;;;;13.83;68.21;101220.56;5018730;28;20041;-88
2022/11/01 08:15:12;;;;;;;12.40;2.60;;;;;;;13.73;68.53;101203.91;5018669;28;20041;-88
2022/11/01 08:17:37;;;;;;;11.93;2.93;;;;;;;13.67;68.60;101211.09;5006651;28;20471;-84
2022/11/01 08:20:03;;;;;;;11.93;2.43;;;;;;;13.72;69.08;101235.78;5018998;28;20046;-83
2022/11/01 08:22:29;;;;;;;11.63;2.50;;;;;;;13.79;68.71;101227.50;5006199;28;20183;-86
2022/11/01 08:24:54;;;;;;;10.17;2.90;;;;;;;13.65;69.06;101226.81;5019485;28;20037;-89
2022/11/01 08:27:19;;;;;;;10.03;3.77;;;;;;;13.76;69.13;101239.72;5033852;28;20118;-86
2022/11/01 08:29:45;;;;;;;10.10;2.20;;;;;;;14.05;66.93;101252.84;5019266;28;20099;-83
2022/11/01 08:32:10;;;;;;;9.23;2.77;;;;;;;13.90;68.00;101228.66;5033437;28;20453;-84
2022/11/01 08:34:36;;;;;;;12.10;2.70;;;;;;;13.96;67.73;101241.41;5019854;28;20037;-81
2022/11/01 08:37:01;;;;;;;11.43;2.57;;;;;;;14.13;67.08;101258.84;5017604;28;20045;-85
2022/11/01 08:39:26;;;;;;;12.50;2.57;;;;;;;14.19;66.45;101254.38;5020073;28;20041;-85
2022/11/01 08:41:52;;;;;;;12.93;2.87;;;;;;;14.15;67.26;101253.16;5017833;28;20052;-83
2022/11/01 08:44:18;;;;;;;12.93;3.30;;;;;;;14.29;66.28;101249.25;5034039;28;20090;-83
2022/11/01 08:46:44;;;;;;;14.87;3.50;;;;;;;14.30;66.75;101253.59;5018593;28;20719;-85
2022/11/01 08:49:12;;;;;;;13.53;2.70;;;;;;;14.33;65.77;101246.88;5019761;28;20454;-85
2022/11/01 08:51:37;;;;;;;12.97;2.87;;;;;;;14.38;65.50;101251.66;5019109;28;20156;-84
2022/11/01 08:54:04;;;;;;;11.03;3.70;;;;;;;14.45;65.40;101249.69;5017296;28;20576;-83
2022/11/01 08:56:29;;;;;;;14.00;3.30;;;;;;;14.53;65.45;101249.38;5019189;28;20372;-84
2022/11/01 08:58:55;;;;;;;12.40;2.63;;;;;;;14.74;63.99;101263.63;5018703;28;20021;-83
2022/11/01 09:01:22;;;;;;;12.63;3.00;;;;;;;14.64;64.50;101251.34;5018199;28;20407;-85
2022/11/01 09:03:48;;;;;;;10.17;2.50;;;;;;;14.81;63.90;101264.34;5000285;28;20536;-89
2022/11/01 09:06:14;;;;;;;12.00;2.80;;;;;;;14.88;63.86;101259.66;5021456;28;20042;-82
2022/11/01 09:08:40;;;;;;;13.63;2.77;;;;;;;14.82;64.04;101279.66;5004255;28;20038;-83
2022/11/01 09:11:05;;;;;;;12.13;3.10;;;;;;;14.72;63.74;101263.03;5022693;28;20037;-86
2022/11/01 09:13:32;;;;;;;14.33;2.80;;;;;;;14.92;62.93;101281.84;5022623;28;20144;-85
2022/11/01 09:15:57;;;;;;;11.77;2.50;;;;;;;15.03;62.67;101271.00;5022183;28;20037;-83
2022/11/01 09:18:23;;;;;;;8.73;2.67;;;;;;;14.87;63.97;101281.72;5021926;28;20043;-83
2022/11/01 09:20:55;;;;;;;10.33;2.70;;;;;;;15.21;63.08;101296.56;5020546;28;20769;-84
2022/11/01 09:23:21;;;;;;;12.83;2.60;;;;;;;15.02;62.00;101266.59;5037882;28;20045;-86
2022/11/01 09:25:46;;;;;;;12.73;3.00;;;;;;;15.13;62.39;101278.63;5022194;28;20532;-85
2022/11/01 09:28:12;;;;;;;14.67;3.50;;;;;;;15.08;63.14;101275.78;5022075;28;20063;-83
2022/11/01 09:30:38;;;;;;;11.40;3.23;;;;;;;15.21;62.47;101273.91;5022046;28;20041;-86
2022/11/01 09:33:04;;;;;;;13.87;3.23;;;;;;;15.31;62.52;101291.41;5021878;28;20091;-83
2022/11/01 09:35:30;;;;;;;9.67;2.77;;;;;;;15.22;62.95;101303.72;5022878;28;20067;-85
2022/11/01 09:37:57;;;;;;;11.47;2.90;;;;;;;15.41;62.06;101295.44;4986717;28;21439;-83
2022/11/01 09:40:23;;;;;;;12.23;2.87;;;;;;;15.38;62.95;101302.22;5022137;28;20037;-83
2022/11/01 09:42:48;;;;;;;15.13;3.53;;;;;;;15.28;62.55;101285.56;5036025;28;20042;-86
2022/11/01 09:45:23;;;;;;;11.87;2.77;;;;;;;15.56;62.41;101325.91;5022573;28;20040;-88
2022/11/01 09:47:52;;;;;;;13.20;3.17;;;;;;;15.54;62.33;101325.28;5021019;28;20033;-84
2022/11/01 09:50:23;;;;;;;12.63;3.03;;;;;;;15.63;62.83;101326.63;5021556;28;20045;-83
2022/11/01 09:52:50;;;;;;;12.57;2.90;;;;;;;15.77;62.58;101323.69;5021802;28;20615;-86
2022/11/01 09:55:24;;;;;;;14.00;2.50;;;;;;;15.81;61.15;101339.38;5022584;28;20107;-84
2022/11/01 09:58:22;;;;;;;13.40;3.20;;;;;;;15.95;61.52;101355.56;5020488;28;20139;-83
2022/11/01 10:01:04;;;;;;;12.33;2.73;;;;;;;15.42;62.28;101346.25;4999917;28;20038;-84
2022/11/01 10:03:42;;;;;;;10.70;2.73;;;;;;;15.55;62.55;101346.06;5015170;28;20068;-84
2022/11/01 10:06:23;;;;;;;13.67;3.00;;;;;;;15.76;62.73;101352.06;5021147;28;20116;-84
2022/11/01 10:08:49;;;;;;;12.60;3.20;;;;;;;15.67;61.61;101365.22;5022150;28;20037;-86
2022/11/01 10:11:38;;;;;;;11.43;2.77;;;;;;;15.63;61.98;101364.84;5021661;28;20346;-87
2022/11/01 10:14:28;;;;;;;13.60;2.87;;;;;;;15.98;62.18;101355.94;5021293;28;20568;-83
2022/11/01 10:17:15;;;;;;;14.10;2.90;;;;;;;15.97;62.11;101376.13;5020652;28;20091;-84
2022/11/01 10:19:45;;;;;;;12.13;2.50;;;;;;;15.89;62.04;101373.75;5021831;28;20469;-82
2022/11/01 10:22:33;;;;;;;11.67;2.60;;;;;;;15.94;63.04;101368.41;5021095;28;20041;-85
2022/11/01 10:25:23;;;;;;;11.17;2.70;;;;;;;16.49;60.60;101358.22;5021473;28;20107;-85
2022/11/01 10:27:57;;;;;;;12.70;2.80;;;;;;;16.14;60.74;101369.97;5008037;28;20532;-84
2022/11/01 10:30:23;;;;;;;11.40;2.92;;;;;;;16.04;60.92;101365.91;5013930;28;20381;-84
2022/11/01 10:33:01;;;;;;;9.90;2.57;;;;;;;16.08;62.15;101370.94;5020726;28;20069;-83
2022/11/01 10:35:44;;;;;;;11.00;2.90;;;;;;;16.20;61.61;101375.31;5000208;28;20017;-82
2022/11/01 10:38:25;;;;;;;11.20;2.20;;;;;;;16.14;62.04;101348.94;5020761;28;20425;-84
2022/11/01 10:41:00;;;;;;;11.27;2.50;;;;;;;16.22;61.18;101339.53;5020675;28;20036;-83
2022/11/01 10:43:26;;;;;;;12.17;2.70;;;;;;;16.09;61.29;101376.16;5020005;28;20152;-83
2022/11/01 10:45:54;;;;;;;9.17;2.53;;;;;;;16.24;60.26;101359.28;5020928;28;20482;-85
2022/11/01 10:48:42;;;;;;;11.23;2.90;;;;;;;16.47;60.13;101380.34;5020643;28;20046;-88
2022/11/01 10:51:09;;;;;;;10.37;2.50;;;;;;;16.09;61.07;101378.88;4999457;28;20049;-89
2022/11/01 10:53:44;;;;;;;10.40;2.50;;;;;;;16.34;61.61;101375.09;5021176;28;20065;-84
2022/11/01 10:56:16;;;;;;;13.27;3.10;;;;;;;16.17;61.74;101369.53;5017329;28;20128;-85
2022/11/01 10:58:48;;;;;;;10.93;2.80;;;;;;;16.56;61.03;101378.06;5020301;28;20111;-83
2022/11/01 11:01:18;;;;;;;11.98;2.85;;;;;;;16.46;60.14;101375.94;5020495;28;20036;-86
2022/11/01 11:03:47;;;;;;;11.23;2.30;;;;;;;16.64;58.60;101377.69;5018961;28;20041;-87
2022/11/01 11:06:14;;;;;;;14.50;3.50;;;;;;;16.61;59.13;101363.69;4995429;28;20257;-84
2022/11/01 11:08:43;;;;;;;11.03;3.10;;;;;;;16.50;60.17;101362.63;5016207;28;20071;-83
2022/11/01 11:11:13;;;;;;;9.57;2.50;;;;;;;16.32;60.82;101369.88;5016891;28;20332;-84
2022/11/01 11:13:43;;;;;;;8.53;2.60;;;;;;;16.54;60.79;101380.22;5015238;28;20564;-85
2022/11/01 11:16:30;;;;;;;12.33;3.27;;;;;;;16.30;60.03;101380.19;5016558;28;20041;-84
2022/11/01 11:19:18;;;;;;;11.93;2.47;;;;;;;16.19;61.42;101372.84;5016622;28;20457;-82
2022/11/01 11:21:46;;;;;;;10.87;2.70;;;;;;;16.11;61.30;101371.28;5016090;28;20037;-84
2022/11/01 11:24:24;;;;;;;9.57;2.60;;;;;;;16.16;60.94;101356.91;5003027;28;20475;-85
2022/11/01 11:26:57;;;;;;;13.97;2.80;;;;;;;15.97;62.35;101381.59;4996974;28;20045;-81
2022/11/01 11:29:36;;;;;;;12.23;3.20;;;;;;;15.84;62.30;101355.34;4963260;28;20381;-82
2022/11/01 11:32:05;;;;;;;9.27;2.50;;;;;;;15.98;62.79;101364.13;4995419;28;20525;-82
2022/11/01 11:34:40;;;;;;;12.17;2.70;;;;;;;15.75;63.14;101362.16;4996338;28;20037;-85
2022/11/01 11:37:15;;;;;;;14.67;3.50;;;;;;;15.86;62.95;101372.31;4996184;28;20037;-82